sensor_id;sensor_type;location;lat;lon;timestamp;temperature;humidity
41557;DHT22;27720;51.992;5.890;2023-12-20T10:05:56;6.30;99.90
41557;DHT22;27720;51.992;5.890;2023-12-20T10:08:24;6.70;99.90
41557;DHT22;27720;51.992;5.890;2023-12-20T10:10:50;7.30;99.90
41557;DHT22;27720;51.992;5.890;2023-12-20T10:13:15;7.90;99.90
41557;DHT22;27720;51.992;5.890;2023-12-20T10:15:41;8.40;99.90
41557;DHT22;27720;51.992;5.890;2023-12-20T10:18:07;8.80;99.90
41557;DHT22;27720;51.992;5.890;2023-12-20T10:20:33;9.00;99.90
41557;DHT22;27720;51.992;5.890;2023-12-20T10:23:00;9.30;99.90
41557;DHT22;27720;51.992;5.890;2023-12-20T10:25:26;9.40;99.90
41557;DHT22;27720;51.992;5.890;2023-12-20T10:30:34;9.70;99.90
41557;DHT22;27720;51.992;5.890;2023-12-20T10:33:01;9.80;99.90
41557;DHT22;27720;51.992;5.890;2023-12-20T10:35:26;9.80;99.90
41557;DHT22;27720;51.992;5.890;2023-12-20T10:37:55;9.90;99.90
41557;DHT22;27720;51.992;5.890;2023-12-20T10:40:22;9.90;99.90
41557;DHT22;27720;51.992;5.890;2023-12-20T10:42:48;10.00;99.90
41557;DHT22;27720;51.992;5.890;2023-12-20T10:45:15;10.00;99.90
41557;DHT22;27720;51.992;5.890;2023-12-20T10:47:46;10.10;99.90
41557;DHT22;27720;51.992;5.890;2023-12-20T10:50:12;10.10;99.90
41557;DHT22;27720;51.992;5.890;2023-12-20T10:52:38;10.10;99.90
41557;DHT22;27720;51.992;5.890;2023-12-20T10:55:06;10.20;99.90
41557;DHT22;27720;51.992;5.890;2023-12-20T10:57:32;10.20;99.90
41557;DHT22;27720;51.992;5.890;2023-12-20T11:00:01;10.20;99.90
41557;DHT22;27720;51.992;5.890;2023-12-20T11:02:32;10.30;99.90
41557;DHT22;27720;51.992;5.890;2023-12-20T11:05:23;10.30;99.90
41557;DHT22;27720;51.992;5.890;2023-12-20T11:07:58;10.30;99.90
41557;DHT22;27720;51.992;5.890;2023-12-20T11:10:31;10.30;99.90
41557;DHT22;27720;51.992;5.890;2023-12-20T11:13:12;10.40;99.90
41557;DHT22;27720;51.992;5.890;2023-12-20T11:15:42;10.40;99.90
41557;DHT22;27720;51.992;5.890;2023-12-20T11:18:09;10.40;99.90
41557;DHT22;27720;51.992;5.890;2023-12-20T11:20:40;10.50;99.90
41557;DHT22;27720;51.992;5.890;2023-12-20T11:23:06;10.50;99.90
41557;DHT22;27720;51.992;5.890;2023-12-20T11:25:55;10.50;99.90
41557;DHT22;27720;51.992;5.890;2023-12-20T11:28:23;10.50;99.90
41557;DHT22;27720;51.992;5.890;2023-12-20T11:30:53;10.60;99.90
41557;DHT22;27720;51.992;5.890;2023-12-20T11:33:24;10.60;99.90
41557;DHT22;27720;51.992;5.890;2023-12-20T11:35:50;10.60;99.90
41557;DHT22;27720;51.992;5.890;2023-12-20T11:38:16;10.70;99.90
41557;DHT22;27720;51.992;5.890;2023-12-20T11:40:43;10.70;99.90
41557;DHT22;27720;51.992;5.890;2023-12-20T11:43:09;10.70;99.90
41557;DHT22;27720;51.992;5.890;2023-12-20T11:45:35;10.70;99.90
41557;DHT22;27720;51.992;5.890;2023-12-20T11:48:04;10.70;99.90
41557;DHT22;27720;51.992;5.890;2023-12-20T11:50:31;10.80;99.90
41557;DHT22;27720;51.992;5.890;2023-12-20T11:52:57;10.80;99.90
41557;DHT22;27720;51.992;5.890;2023-12-20T11:55:23;10.80;99.90
41557;DHT22;27720;51.992;5.890;2023-12-20T11:57:50;10.80;99.90
41557;DHT22;27720;51.992;5.890;2023-12-20T12:00:16;10.80;99.90
41557;DHT22;27720;51.992;5.890;2023-12-20T12:02:55;10.80;99.90
41557;DHT22;27720;51.992;5.890;2023-12-20T12:05:22;10.80;99.90
41557;DHT22;27720;51.992;5.890;2023-12-20T12:07:47;10.90;99.90
41557;DHT22;27720;51.992;5.890;2023-12-20T12:10:14;10.90;99.90
41557;DHT22;27720;51.992;5.890;2023-12-20T12:12:39;10.90;99.90
41557;DHT22;27720;51.992;5.890;2023-12-20T12:15:05;10.90;99.90
41557;DHT22;27720;51.992;5.890;2023-12-20T12:17:31;10.90;99.90
41557;DHT22;27720;51.992;5.890;2023-12-20T12:20:07;10.90;99.90
41557;DHT22;27720;51.992;5.890;2023-12-20T12:22:33;10.90;99.90
41557;DHT22;27720;51.992;5.890;2023-12-20T12:25:08;10.90;99.90
41557;DHT22;27720;51.992;5.890;2023-12-20T12:27:35;10.90;99.90
41557;DHT22;27720;51.992;5.890;2023-12-20T12:30:03;10.90;99.90
41557;DHT22;27720;51.992;5.890;2023-12-20T12:32:35;11.00;99.90
41557;DHT22;27720;51.992;5.890;2023-12-20T12:35:03;11.00;99.90
41557;DHT22;27720;51.992;5.890;2023-12-20T12:37:33;11.00;99.90
41557;DHT22;27720;51.992;5.890;2023-12-20T12:39:59;11.00;99.90
41557;DHT22;27720;51.992;5.890;2023-12-20T12:42:25;11.10;99.90
41557;DHT22;27720;51.992;5.890;2023-12-20T12:44:54;11.00;99.90
41557;DHT22;27720;51.992;5.890;2023-12-20T12:47:20;11.00;99.90
41557;DHT22;27720;51.992;5.890;2023-12-20T12:49:46;11.10;99.90
41557;DHT22;27720;51.992;5.890;2023-12-20T12:52:12;11.10;99.90
41557;DHT22;27720;51.992;5.890;2023-12-20T12:54:38;11.10;99.90
41557;DHT22;27720;51.992;5.890;2023-12-20T12:57:03;11.10;99.90
41557;DHT22;27720;51.992;5.890;2023-12-20T12:59:29;11.10;99.90
41557;DHT22;27720;51.992;5.890;2023-12-20T13:01:55;11.10;99.90
41557;DHT22;27720;51.992;5.890;2023-12-20T13:04:21;11.00;99.90
41557;DHT22;27720;51.992;5.890;2023-12-20T13:06:46;11.00;99.90
41557;DHT22;27720;51.992;5.890;2023-12-20T13:09:12;11.00;99.90
41557;DHT22;27720;51.992;5.890;2023-12-20T13:11:38;11.10;99.90
41557;DHT22;27720;51.992;5.890;2023-12-20T13:14:04;11.10;99.90
41557;DHT22;27720;51.992;5.890;2023-12-20T13:16:29;11.10;99.90
41557;DHT22;27720;51.992;5.890;2023-12-20T13:18:55;11.10;99.90
41557;DHT22;27720;51.992;5.890;2023-12-20T13:21:21;11.20;99.90
41557;DHT22;27720;51.992;5.890;2023-12-20T13:23:47;11.20;99.90
41557;DHT22;27720;51.992;5.890;2023-12-20T13:26:13;11.20;99.90
41557;DHT22;27720;51.992;5.890;2023-12-20T13:28:38;11.20;99.90
41557;DHT22;27720;51.992;5.890;2023-12-20T13:31:04;11.20;99.90
41557;DHT22;27720;51.992;5.890;2023-12-20T13:33:29;11.20;99.90
41557;DHT22;27720;51.992;5.890;2023-12-20T13:35:55;11.30;99.90
41557;DHT22;27720;51.992;5.890;2023-12-20T13:38:21;11.20;99.90
41557;DHT22;27720;51.992;5.890;2023-12-20T13:40:47;11.30;99.90
41557;DHT22;27720;51.992;5.890;2023-12-20T13:43:13;11.20;99.90
41557;DHT22;27720;51.992;5.890;2023-12-20T13:45:39;11.20;99.90
41557;DHT22;27720;51.992;5.890;2023-12-20T13:48:05;11.20;99.90
41557;DHT22;27720;51.992;5.890;2023-12-20T13:50:31;11.20;99.90
41557;DHT22;27720;51.992;5.890;2023-12-20T13:52:56;11.20;99.90
41557;DHT22;27720;51.992;5.890;2023-12-20T13:55:22;11.20;99.90
41557;DHT22;27720;51.992;5.890;2023-12-20T13:57:51;11.30;99.90
41557;DHT22;27720;51.992;5.890;2023-12-20T14:00:17;11.20;99.90
41557;DHT22;27720;51.992;5.890;2023-12-20T14:02:42;11.20;99.90
41557;DHT22;27720;51.992;5.890;2023-12-20T14:05:11;11.20;99.90
41557;DHT22;27720;51.992;5.890;2023-12-20T14:07:37;11.20;99.90
41557;DHT22;27720;51.992;5.890;2023-12-20T14:10:03;11.20;99.90
41557;DHT22;27720;51.992;5.890;2023-12-20T14:12:29;11.20;99.90
41557;DHT22;27720;51.992;5.890;2023-12-20T14:14:55;11.20;99.90
41557;DHT22;27720;51.992;5.890;2023-12-20T14:17:22;11.20;99.90
41557;DHT22;27720;51.992;5.890;2023-12-20T14:19:47;11.30;99.90
41557;DHT22;27720;51.992;5.890;2023-12-20T14:22:13;11.30;99.90
41557;DHT22;27720;51.992;5.890;2023-12-20T14:24:42;11.30;99.90
41557;DHT22;27720;51.992;5.890;2023-12-20T14:27:08;11.30;99.90
41557;DHT22;27720;51.992;5.890;2023-12-20T14:29:35;11.30;99.90
41557;DHT22;27720;51.992;5.890;2023-12-20T14:32:00;11.30;99.90
41557;DHT22;27720;51.992;5.890;2023-12-20T14:34:28;11.20;99.90
41557;DHT22;27720;51.992;5.890;2023-12-20T14:36:54;11.20;99.90
41557;DHT22;27720;51.992;5.890;2023-12-20T14:39:19;11.20;99.90
41557;DHT22;27720;51.992;5.890;2023-12-20T14:41:45;11.20;99.90
41557;DHT22;27720;51.992;5.890;2023-12-20T14:44:11;11.20;99.90
41557;DHT22;27720;51.992;5.890;2023-12-20T14:46:36;11.20;99.90
41557;DHT22;27720;51.992;5.890;2023-12-20T14:49:04;11.20;99.90
41557;DHT22;27720;51.992;5.890;2023-12-20T14:51:30;11.30;99.90
41557;DHT22;27720;51.992;5.890;2023-12-20T14:53:56;11.30;99.90
41557;DHT22;27720;51.992;5.890;2023-12-20T14:56:23;11.30;99.90
41557;DHT22;27720;51.992;5.890;2023-12-20T14:58:49;11.30;99.90
41557;DHT22;27720;51.992;5.890;2023-12-20T15:01:14;11.30;99.90
41557;DHT22;27720;51.992;5.890;2023-12-20T15:03:40;11.30;99.90
41557;DHT22;27720;51.992;5.890;2023-12-20T15:06:06;11.30;99.90
41557;DHT22;27720;51.992;5.890;2023-12-20T15:08:32;11.30;99.90
41557;DHT22;27720;51.992;5.890;2023-12-20T15:10:58;11.30;99.90
41557;DHT22;27720;51.992;5.890;2023-12-20T15:13:24;11.30;99.90
41557;DHT22;27720;51.992;5.890;2023-12-20T15:15:50;11.30;99.90
41557;DHT22;27720;51.992;5.890;2023-12-20T15:18:16;11.30;99.90
41557;DHT22;27720;51.992;5.890;2023-12-20T15:20:41;11.30;99.90
41557;DHT22;27720;51.992;5.890;2023-12-20T15:23:09;11.30;99.90
41557;DHT22;27720;51.992;5.890;2023-12-20T15:25:35;11.30;99.90
41557;DHT22;27720;51.992;5.890;2023-12-20T15:28:01;11.20;99.90
41557;DHT22;27720;51.992;5.890;2023-12-20T15:30:28;11.30;99.90
41557;DHT22;27720;51.992;5.890;2023-12-20T15:32:55;11.20;99.90
41557;DHT22;27720;51.992;5.890;2023-12-20T15:35:22;11.20;99.90
41557;DHT22;27720;51.992;5.890;2023-12-20T15:37:47;11.20;99.90
41557;DHT22;27720;51.992;5.890;2023-12-20T15:40:13;11.30;99.90
41557;DHT22;27720;51.992;5.890;2023-12-20T15:42:39;11.30;99.90
41557;DHT22;27720;51.992;5.890;2023-12-20T15:45:06;11.30;99.90
41557;DHT22;27720;51.992;5.890;2023-12-20T15:47:34;11.20;99.90
41557;DHT22;27720;51.992;5.890;2023-12-20T15:50:01;11.20;99.90
41557;DHT22;27720;51.992;5.890;2023-12-20T15:52:27;11.20;99.90
41557;DHT22;27720;51.992;5.890;2023-12-20T15:54:53;11.20;99.90
41557;DHT22;27720;51.992;5.890;2023-12-20T15:57:19;11.20;99.90
41557;DHT22;27720;51.992;5.890;2023-12-20T15:59:44;11.20;99.90
41557;DHT22;27720;51.992;5.890;2023-12-20T16:02:10;11.20;99.90
41557;DHT22;27720;51.992;5.890;2023-12-20T16:04:36;11.10;99.90
41557;DHT22;27720;51.992;5.890;2023-12-20T16:07:02;11.10;99.90
41557;DHT22;27720;51.992;5.890;2023-12-20T16:09:28;11.10;99.90
41557;DHT22;27720;51.992;5.890;2023-12-20T16:11:53;11.10;99.90
41557;DHT22;27720;51.992;5.890;2023-12-20T16:14:19;11.00;99.90
41557;DHT22;27720;51.992;5.890;2023-12-20T16:16:48;11.00;99.90
41557;DHT22;27720;51.992;5.890;2023-12-20T16:19:14;11.00;99.90
41557;DHT22;27720;51.992;5.890;2023-12-20T16:21:40;11.00;99.90
41557;DHT22;27720;51.992;5.890;2023-12-20T16:24:06;11.00;99.90
41557;DHT22;27720;51.992;5.890;2023-12-20T16:26:32;11.00;99.90
41557;DHT22;27720;51.992;5.890;2023-12-20T16:28:58;10.90;99.90
41557;DHT22;27720;51.992;5.890;2023-12-20T16:31:23;10.90;99.90
41557;DHT22;27720;51.992;5.890;2023-12-20T16:33:49;10.90;99.90
41557;DHT22;27720;51.992;5.890;2023-12-20T16:36:15;10.90;99.90
41557;DHT22;27720;51.992;5.890;2023-12-20T16:38:40;10.90;99.90
41557;DHT22;27720;51.992;5.890;2023-12-20T16:41:06;10.90;99.90
41557;DHT22;27720;51.992;5.890;2023-12-20T16:43:32;10.80;99.90
41557;DHT22;27720;51.992;5.890;2023-12-20T16:45:57;10.90;99.90
41557;DHT22;27720;51.992;5.890;2023-12-20T16:48:23;10.90;99.90
41557;DHT22;27720;51.992;5.890;2023-12-20T16:50:49;10.90;99.90
41557;DHT22;27720;51.992;5.890;2023-12-20T16:53:16;10.90;99.90
41557;DHT22;27720;51.992;5.890;2023-12-20T16:55:42;10.90;99.90
41557;DHT22;27720;51.992;5.890;2023-12-20T16:58:13;10.90;99.90
41557;DHT22;27720;51.992;5.890;2023-12-20T17:00:39;10.90;99.90
41557;DHT22;27720;51.992;5.890;2023-12-20T17:03:07;10.90;99.90
41557;DHT22;27720;51.992;5.890;2023-12-20T17:05:33;10.90;99.90
41557;DHT22;27720;51.992;5.890;2023-12-20T17:07:59;10.90;99.90
41557;DHT22;27720;51.992;5.890;2023-12-20T17:10:25;10.90;99.90
41557;DHT22;27720;51.992;5.890;2023-12-20T17:12:51;10.90;99.90
41557;DHT22;27720;51.992;5.890;2023-12-20T17:15:16;10.90;99.90
41557;DHT22;27720;51.992;5.890;2023-12-20T17:17:42;10.90;99.90
41557;DHT22;27720;51.992;5.890;2023-12-20T17:20:08;10.90;99.90
41557;DHT22;27720;51.992;5.890;2023-12-20T17:22:33;10.90;99.90
41557;DHT22;27720;51.992;5.890;2023-12-20T17:24:59;10.90;99.90
41557;DHT22;27720;51.992;5.890;2023-12-20T17:27:25;10.90;99.90
41557;DHT22;27720;51.992;5.890;2023-12-20T17:29:51;11.00;99.90
41557;DHT22;27720;51.992;5.890;2023-12-20T17:32:16;11.00;99.90
41557;DHT22;27720;51.992;5.890;2023-12-20T17:34:42;11.00;99.90
41557;DHT22;27720;51.992;5.890;2023-12-20T17:37:08;10.90;99.90
41557;DHT22;27720;51.992;5.890;2023-12-20T17:39:34;10.90;99.90
41557;DHT22;27720;51.992;5.890;2023-12-20T17:42:00;10.90;99.90
41557;DHT22;27720;51.992;5.890;2023-12-20T17:44:25;10.90;99.90
41557;DHT22;27720;51.992;5.890;2023-12-20T17:46:51;10.90;99.90
41557;DHT22;27720;51.992;5.890;2023-12-20T17:49:17;10.90;99.90
41557;DHT22;27720;51.992;5.890;2023-12-20T17:51:46;10.90;99.90
41557;DHT22;27720;51.992;5.890;2023-12-20T17:54:12;10.90;99.90
41557;DHT22;27720;51.992;5.890;2023-12-20T17:56:38;10.80;99.90
41557;DHT22;27720;51.992;5.890;2023-12-20T17:59:04;10.90;99.90
41557;DHT22;27720;51.992;5.890;2023-12-20T18:01:29;10.80;99.90
41557;DHT22;27720;51.992;5.890;2023-12-20T18:03:55;10.90;99.90
41557;DHT22;27720;51.992;5.890;2023-12-20T18:06:21;10.90;99.90
41557;DHT22;27720;51.992;5.890;2023-12-20T18:08:46;10.90;99.90
41557;DHT22;27720;51.992;5.890;2023-12-20T18:11:12;10.90;99.90
41557;DHT22;27720;51.992;5.890;2023-12-20T18:13:38;10.90;99.90
41557;DHT22;27720;51.992;5.890;2023-12-20T18:16:04;10.90;99.90
41557;DHT22;27720;51.992;5.890;2023-12-20T18:18:34;10.90;99.90
41557;DHT22;27720;51.992;5.890;2023-12-20T18:21:00;10.90;99.90
41557;DHT22;27720;51.992;5.890;2023-12-20T18:23:26;11.00;99.90
41557;DHT22;27720;51.992;5.890;2023-12-20T18:25:51;10.90;99.90
41557;DHT22;27720;51.992;5.890;2023-12-20T18:28:19;10.90;99.90
41557;DHT22;27720;51.992;5.890;2023-12-20T18:30:45;11.00;99.90
41557;DHT22;27720;51.992;5.890;2023-12-20T18:33:10;11.00;99.90
41557;DHT22;27720;51.992;5.890;2023-12-20T18:35:36;11.00;99.90
41557;DHT22;27720;51.992;5.890;2023-12-20T18:38:05;11.00;99.90
41557;DHT22;27720;51.992;5.890;2023-12-20T18:40:31;11.00;99.90
41557;DHT22;27720;51.992;5.890;2023-12-20T18:42:56;11.00;99.90
41557;DHT22;27720;51.992;5.890;2023-12-20T18:45:23;11.00;99.90
41557;DHT22;27720;51.992;5.890;2023-12-20T18:47:49;11.00;99.90
41557;DHT22;27720;51.992;5.890;2023-12-20T18:50:14;11.00;99.90
41557;DHT22;27720;51.992;5.890;2023-12-20T18:52:40;11.00;99.90
41557;DHT22;27720;51.992;5.890;2023-12-20T18:55:07;11.00;99.90
41557;DHT22;27720;51.992;5.890;2023-12-20T18:57:33;11.00;99.90
41557;DHT22;27720;51.992;5.890;2023-12-20T18:59:58;11.00;99.90
41557;DHT22;27720;51.992;5.890;2023-12-20T19:02:24;11.10;99.90
41557;DHT22;27720;51.992;5.890;2023-12-20T19:04:50;11.10;99.90
41557;DHT22;27720;51.992;5.890;2023-12-20T19:07:16;11.10;99.90
41557;DHT22;27720;51.992;5.890;2023-12-20T19:09:41;11.10;99.90
41557;DHT22;27720;51.992;5.890;2023-12-20T19:12:07;11.00;99.90
41557;DHT22;27720;51.992;5.890;2023-12-20T19:14:33;11.00;99.90
41557;DHT22;27720;51.992;5.890;2023-12-20T19:16:59;11.00;99.90
41557;DHT22;27720;51.992;5.890;2023-12-20T19:19:26;11.10;99.90
41557;DHT22;27720;51.992;5.890;2023-12-20T19:21:53;11.00;99.90
41557;DHT22;27720;51.992;5.890;2023-12-20T19:24:19;11.00;99.90
41557;DHT22;27720;51.992;5.890;2023-12-20T19:26:44;11.10;99.90
41557;DHT22;27720;51.992;5.890;2023-12-20T19:29:10;11.10;99.90
41557;DHT22;27720;51.992;5.890;2023-12-20T19:31:36;11.10;99.90
41557;DHT22;27720;51.992;5.890;2023-12-20T19:34:01;11.10;99.90
41557;DHT22;27720;51.992;5.890;2023-12-20T19:36:27;11.00;99.90
41557;DHT22;27720;51.992;5.890;2023-12-20T19:38:53;11.10;99.90
41557;DHT22;27720;51.992;5.890;2023-12-20T19:41:19;11.10;99.90
41557;DHT22;27720;51.992;5.890;2023-12-20T19:43:44;11.10;99.90
41557;DHT22;27720;51.992;5.890;2023-12-20T19:46:10;11.10;99.90
41557;DHT22;27720;51.992;5.890;2023-12-20T19:48:36;11.10;99.90
41557;DHT22;27720;51.992;5.890;2023-12-20T19:51:02;11.20;99.90
41557;DHT22;27720;51.992;5.890;2023-12-20T19:53:28;11.20;99.90
41557;DHT22;27720;51.992;5.890;2023-12-20T19:55:54;11.10;99.90
41557;DHT22;27720;51.992;5.890;2023-12-20T19:58:19;11.10;99.90
41557;DHT22;27720;51.992;5.890;2023-12-20T20:00:45;11.20;99.90
41557;DHT22;27720;51.992;5.890;2023-12-20T20:03:11;11.20;99.90
41557;DHT22;27720;51.992;5.890;2023-12-20T20:05:37;11.20;99.90
41557;DHT22;27720;51.992;5.890;2023-12-20T20:08:04;11.20;99.90
41557;DHT22;27720;51.992;5.890;2023-12-20T20:10:29;11.20;99.90
41557;DHT22;27720;51.992;5.890;2023-12-20T20:12:55;11.20;99.90
41557;DHT22;27720;51.992;5.890;2023-12-20T20:15:21;11.20;99.90
41557;DHT22;27720;51.992;5.890;2023-12-20T20:17:46;11.20;99.90
41557;DHT22;27720;51.992;5.890;2023-12-20T20:20:12;11.20;99.90
41557;DHT22;27720;51.992;5.890;2023-12-20T20:22:38;11.20;99.90
41557;DHT22;27720;51.992;5.890;2023-12-20T20:25:03;11.20;99.90
41557;DHT22;27720;51.992;5.890;2023-12-20T20:27:29;11.20;99.90
41557;DHT22;27720;51.992;5.890;2023-12-20T20:29:55;11.20;99.90
41557;DHT22;27720;51.992;5.890;2023-12-20T20:32:20;11.20;99.90
41557;DHT22;27720;51.992;5.890;2023-12-20T20:34:46;11.20;99.90
41557;DHT22;27720;51.992;5.890;2023-12-20T20:37:13;11.20;99.90
41557;DHT22;27720;51.992;5.890;2023-12-20T20:39:39;11.30;99.90
41557;DHT22;27720;51.992;5.890;2023-12-20T20:42:05;11.30;99.90
41557;DHT22;27720;51.992;5.890;2023-12-20T20:44:31;11.20;99.90
41557;DHT22;27720;51.992;5.890;2023-12-20T20:46:56;11.30;99.90
41557;DHT22;27720;51.992;5.890;2023-12-20T20:49:22;11.30;99.90
41557;DHT22;27720;51.992;5.890;2023-12-20T20:51:50;11.30;99.90
41557;DHT22;27720;51.992;5.890;2023-12-20T20:54:16;11.30;99.90
41557;DHT22;27720;51.992;5.890;2023-12-20T20:56:42;11.30;99.90
41557;DHT22;27720;51.992;5.890;2023-12-20T20:59:07;11.30;99.90
41557;DHT22;27720;51.992;5.890;2023-12-20T21:01:33;11.30;99.90
41557;DHT22;27720;51.992;5.890;2023-12-20T21:03:59;11.20;99.90
41557;DHT22;27720;51.992;5.890;2023-12-20T21:06:25;11.20;99.90
41557;DHT22;27720;51.992;5.890;2023-12-20T21:08:57;11.30;99.90
41557;DHT22;27720;51.992;5.890;2023-12-20T21:11:23;11.30;99.90
41557;DHT22;27720;51.992;5.890;2023-12-20T21:13:49;11.30;99.90
41557;DHT22;27720;51.992;5.890;2023-12-20T21:16:18;11.30;99.90
41557;DHT22;27720;51.992;5.890;2023-12-20T21:18:44;11.30;99.90
41557;DHT22;27720;51.992;5.890;2023-12-20T21:21:11;11.30;99.90
41557;DHT22;27720;51.992;5.890;2023-12-20T21:23:36;11.30;99.90
41557;DHT22;27720;51.992;5.890;2023-12-20T21:26:02;11.30;99.90
41557;DHT22;27720;51.992;5.890;2023-12-20T21:28:34;11.30;99.90
41557;DHT22;27720;51.992;5.890;2023-12-20T21:31:00;11.40;99.90
41557;DHT22;27720;51.992;5.890;2023-12-20T21:33:25;11.30;99.90
41557;DHT22;27720;51.992;5.890;2023-12-20T21:35:51;11.30;99.90
41557;DHT22;27720;51.992;5.890;2023-12-20T21:38:17;11.30;99.90
41557;DHT22;27720;51.992;5.890;2023-12-20T21:40:43;11.40;99.90
41557;DHT22;27720;51.992;5.890;2023-12-20T21:43:08;11.30;99.90
41557;DHT22;27720;51.992;5.890;2023-12-20T21:45:34;11.40;99.90
41557;DHT22;27720;51.992;5.890;2023-12-20T21:48:03;11.40;99.90
41557;DHT22;27720;51.992;5.890;2023-12-20T21:50:29;11.40;99.90
41557;DHT22;27720;51.992;5.890;2023-12-20T21:52:54;11.30;99.90
41557;DHT22;27720;51.992;5.890;2023-12-20T21:55:20;11.40;99.90
41557;DHT22;27720;51.992;5.890;2023-12-20T21:57:46;11.40;99.90
41557;DHT22;27720;51.992;5.890;2023-12-20T22:00:12;11.40;99.90
41557;DHT22;27720;51.992;5.890;2023-12-20T22:02:37;11.40;99.90
41557;DHT22;27720;51.992;5.890;2023-12-20T22:05:07;11.40;99.90
41557;DHT22;27720;51.992;5.890;2023-12-20T22:07:33;11.50;99.90
41557;DHT22;27720;51.992;5.890;2023-12-20T22:09:58;11.50;99.90
41557;DHT22;27720;51.992;5.890;2023-12-20T22:12:24;11.50;99.90
41557;DHT22;27720;51.992;5.890;2023-12-20T22:14:50;11.50;99.90
41557;DHT22;27720;51.992;5.890;2023-12-20T22:17:16;11.50;99.90
41557;DHT22;27720;51.992;5.890;2023-12-20T22:19:42;11.50;99.90
41557;DHT22;27720;51.992;5.890;2023-12-20T22:22:07;11.50;99.90
41557;DHT22;27720;51.992;5.890;2023-12-20T22:24:33;11.50;99.90
41557;DHT22;27720;51.992;5.890;2023-12-20T22:26:59;11.50;99.90
41557;DHT22;27720;51.992;5.890;2023-12-20T22:29:26;11.50;99.90
41557;DHT22;27720;51.992;5.890;2023-12-20T22:31:55;11.50;99.90
41557;DHT22;27720;51.992;5.890;2023-12-20T22:34:21;11.50;99.90
41557;DHT22;27720;51.992;5.890;2023-12-20T22:36:47;11.50;99.90
41557;DHT22;27720;51.992;5.890;2023-12-20T22:39:13;11.50;99.90
41557;DHT22;27720;51.992;5.890;2023-12-20T22:41:39;11.60;99.90
41557;DHT22;27720;51.992;5.890;2023-12-20T22:44:07;11.60;99.90
41557;DHT22;27720;51.992;5.890;2023-12-20T22:46:33;11.60;99.90
41557;DHT22;27720;51.992;5.890;2023-12-20T22:49:00;11.60;99.90
41557;DHT22;27720;51.992;5.890;2023-12-20T22:51:27;11.60;99.90
41557;DHT22;27720;51.992;5.890;2023-12-20T22:53:54;11.60;99.90
41557;DHT22;27720;51.992;5.890;2023-12-20T22:56:22;11.60;99.90
41557;DHT22;27720;51.992;5.890;2023-12-20T22:58:48;11.60;99.90
41557;DHT22;27720;51.992;5.890;2023-12-20T23:01:13;11.60;99.90
41557;DHT22;27720;51.992;5.890;2023-12-20T23:03:41;11.60;99.90
41557;DHT22;27720;51.992;5.890;2023-12-20T23:06:07;11.70;99.90
41557;DHT22;27720;51.992;5.890;2023-12-20T23:08:33;11.70;99.90
41557;DHT22;27720;51.992;5.890;2023-12-20T23:10:59;11.70;99.90
41557;DHT22;27720;51.992;5.890;2023-12-20T23:13:24;11.70;99.90
